createdAt,value
2019-01-25T00:02:00.304Z,31.40
2019-01-25T00:04:31.047Z,30.30
2019-01-25T00:07:01.360Z,27.57
2019-01-25T00:09:31.622Z,27.40
2019-01-25T00:12:02.503Z,28.50
2019-01-25T00:14:32.820Z,25.40
2019-01-25T00:17:03.166Z,25.37
2019-01-25T00:19:34.585Z,24.93
2019-01-25T00:22:04.878Z,26.47
2019-01-25T00:24:35.276Z,26.67
2019-01-25T00:27:05.728Z,28.27
2019-01-25T00:29:36.062Z,28.20
2019-01-25T00:32:06.540Z,27.90
2019-01-25T00:34:36.673Z,27.10
2019-01-25T00:37:06.911Z,27.98
2019-01-25T00:39:38.188Z,27.93
2019-01-25T00:42:08.359Z,27.73
2019-01-25T00:44:38.624Z,26.67
2019-01-25T00:47:08.793Z,26.27
2019-01-25T00:49:39.469Z,25.97
2019-01-25T00:52:09.983Z,28.20
2019-01-25T00:54:41.077Z,27.60
2019-01-25T00:57:11.515Z,29.67
2019-01-25T00:59:41.700Z,26.97
2019-01-25T01:02:12.305Z,25.03
2019-01-25T01:04:42.617Z,26.30
2019-01-25T01:07:13.369Z,26.10
2019-01-25T01:09:43.813Z,24.30
2019-01-25T01:12:14.180Z,25.07
2019-01-25T01:14:44.460Z,23.87
2019-01-25T01:17:14.782Z,27.80
2019-01-25T01:19:45.061Z,25.70
2019-01-25T01:22:15.237Z,23.67
2019-01-25T01:24:45.406Z,23.80
2019-01-25T01:27:15.632Z,26.73
2019-01-25T01:29:45.829Z,27.00
2019-01-25T01:32:16.053Z,25.17
2019-01-25T01:34:46.294Z,23.53
2019-01-25T01:37:16.455Z,23.47
2019-01-25T01:39:46.660Z,22.03
2019-01-25T01:42:16.819Z,22.63
2019-01-25T01:44:47.754Z,22.15
2019-01-25T01:47:18.056Z,22.40
2019-01-25T01:49:48.424Z,20.17
2019-01-25T01:52:18.579Z,21.87
2019-01-25T01:54:48.741Z,20.53
2019-01-25T01:57:19.158Z,20.33
2019-01-25T01:59:49.320Z,22.70
2019-01-25T02:02:19.470Z,20.43
2019-01-25T02:04:49.744Z,21.43
2019-01-25T02:07:20.362Z,23.30
2019-01-25T02:09:50.898Z,20.83
2019-01-25T02:12:21.187Z,19.67
2019-01-25T02:14:51.390Z,21.57
2019-01-25T02:17:21.742Z,20.77
2019-01-25T02:19:51.934Z,19.47
2019-01-25T02:22:22.053Z,20.60
2019-01-25T02:24:52.203Z,21.33
2019-01-25T02:27:22.478Z,20.60
2019-01-25T02:29:52.664Z,21.70
2019-01-25T02:32:22.820Z,21.13
2019-01-25T02:34:52.960Z,18.70
2019-01-25T02:37:23.179Z,20.10
2019-01-25T02:39:53.299Z,20.90
2019-01-25T02:42:24.535Z,19.30
2019-01-25T02:44:54.774Z,21.13
2019-01-25T02:47:25.014Z,20.33
2019-01-25T02:49:55.113Z,20.27
2019-01-25T02:52:25.286Z,18.80
2019-01-25T02:54:55.499Z,19.30
2019-01-25T02:57:25.832Z,19.20
2019-01-25T02:59:56.176Z,18.90
2019-01-25T03:02:26.878Z,17.57
2019-01-25T03:04:57.272Z,19.32
2019-01-25T03:07:27.992Z,19.87
2019-01-25T03:09:58.447Z,20.63
2019-01-25T03:12:28.724Z,18.63
2019-01-25T03:14:58.998Z,19.70
2019-01-25T03:17:29.331Z,17.17
2019-01-25T03:19:59.498Z,19.30
2019-01-25T03:22:29.744Z,20.17
2019-01-25T03:25:00.019Z,20.10
2019-01-25T03:27:30.257Z,19.93
2019-01-25T03:30:00.517Z,19.23
2019-01-25T03:32:31.028Z,21.33
2019-01-25T03:35:01.417Z,19.97
2019-01-25T03:37:32.613Z,19.85
2019-01-25T03:40:02.966Z,19.60
2019-01-25T03:42:33.115Z,19.30
2019-01-25T03:45:03.375Z,18.80
2019-01-25T03:47:33.769Z,17.27
2019-01-25T03:50:04.854Z,17.93
2019-01-25T03:52:35.197Z,16.97
2019-01-25T03:55:09.049Z,16.20
2019-01-25T03:57:39.414Z,17.77
2019-01-25T04:00:13.508Z,16.70
2019-01-25T04:02:43.773Z,18.13
2019-01-25T04:05:15.499Z,17.87
2019-01-25T04:07:46.357Z,15.90
2019-01-25T04:10:19.033Z,17.70
2019-01-25T04:12:50.163Z,18.40
2019-01-25T04:15:22.869Z,18.43
2019-01-25T04:17:53.242Z,20.87
2019-01-25T04:20:23.744Z,18.40
2019-01-25T04:22:53.968Z,17.40
2019-01-25T04:25:24.330Z,18.53
2019-01-25T04:27:54.852Z,15.30
2019-01-25T04:30:34.225Z,17.33
2019-01-25T04:33:05.030Z,16.87
2019-01-25T04:35:35.605Z,15.70
2019-01-25T04:38:06.034Z,16.20
2019-01-25T04:40:36.263Z,16.50
2019-01-25T04:43:06.944Z,15.80
2019-01-25T04:45:37.171Z,15.30
2019-01-25T04:48:13.168Z,15.70
2019-01-25T04:50:43.613Z,16.53
2019-01-25T04:53:13.877Z,13.90
2019-01-25T04:55:44.117Z,14.17
2019-01-25T04:58:18.777Z,14.70
2019-01-25T05:00:49.324Z,14.90
2019-01-25T05:03:19.687Z,15.23
2019-01-25T05:05:49.881Z,13.27
2019-01-25T05:08:22.994Z,14.23
2019-01-25T05:10:53.656Z,13.40
2019-01-25T05:13:24.067Z,15.53
2019-01-25T05:15:54.356Z,15.53
2019-01-25T05:18:24.736Z,14.90
2019-01-25T05:20:54.902Z,19.83
2019-01-25T05:23:25.074Z,16.00
2019-01-25T05:25:55.331Z,15.97
2019-01-25T05:28:26.115Z,15.40
2019-01-25T05:31:04.594Z,15.50
2019-01-25T05:33:34.770Z,15.40
2019-01-25T05:36:06.174Z,14.67
2019-01-25T05:38:36.769Z,15.10
2019-01-25T05:41:07.037Z,15.53
2019-01-25T05:43:40.031Z,15.63
2019-01-25T05:46:10.331Z,16.97
2019-01-25T05:48:40.835Z,17.12
2019-01-25T05:51:11.519Z,17.17
2019-01-25T05:53:49.700Z,17.23
2019-01-25T05:56:20.173Z,18.97
2019-01-25T05:58:50.374Z,19.77
2019-01-25T06:01:21.137Z,20.67
2019-01-25T06:03:51.445Z,19.57
2019-01-25T06:06:21.699Z,16.60
2019-01-25T06:08:52.100Z,18.60
2019-01-25T06:11:22.366Z,18.90
2019-01-25T06:13:52.653Z,18.40
2019-01-25T06:16:23.240Z,16.27
2019-01-25T06:18:53.443Z,18.90
2019-01-25T06:21:23.737Z,18.90
2019-01-25T06:23:56.070Z,18.37
2019-01-25T06:26:26.204Z,17.77
2019-01-25T06:28:56.546Z,18.60
2019-01-25T06:31:26.729Z,21.77
2019-01-25T06:33:56.937Z,19.32
2019-01-25T06:36:27.199Z,22.30
2019-01-25T06:38:57.335Z,22.67
2019-01-25T06:41:27.505Z,23.07
2019-01-25T06:43:57.713Z,22.07
2019-01-25T06:46:28.352Z,22.70
2019-01-25T06:49:00.555Z,21.93
2019-01-25T06:59:36.376Z,20.40
2019-01-25T07:02:16.820Z,21.43
2019-01-25T07:04:48.622Z,20.40
2019-01-25T07:07:25.253Z,19.60
2019-01-25T07:09:55.673Z,21.77
2019-01-25T07:12:26.215Z,21.70
2019-01-25T07:14:57.064Z,21.10
2019-01-25T07:17:27.653Z,21.13
2019-01-25T07:19:57.973Z,20.80
2019-01-25T07:22:28.792Z,22.23
2019-01-25T07:24:59.164Z,21.43
2019-01-25T07:27:29.575Z,22.15
2019-01-25T07:29:59.978Z,22.10
2019-01-25T07:32:31.223Z,21.90
2019-01-25T07:35:02.149Z,21.83
2019-01-25T07:37:32.925Z,21.97
2019-01-25T07:40:07.076Z,24.83
2019-01-25T07:42:37.560Z,22.67
2019-01-25T07:45:08.304Z,23.17
2019-01-25T07:47:38.589Z,22.07
2019-01-25T07:50:09.228Z,22.97
2019-01-25T07:52:40.183Z,22.90
2019-01-25T07:55:11.001Z,21.43
2019-01-25T07:57:41.656Z,21.80
2019-01-25T08:00:12.426Z,23.33
2019-01-25T08:02:43.035Z,22.63
2019-01-25T08:05:13.749Z,25.03
2019-01-25T08:07:44.321Z,22.87
2019-01-25T08:10:17.756Z,21.40
2019-01-25T08:12:48.264Z,23.47
2019-01-25T08:15:19.827Z,22.87
2019-01-25T08:17:50.509Z,21.00
2019-01-25T08:20:21.250Z,23.30
2019-01-25T08:22:51.712Z,22.97
2019-01-25T08:25:25.527Z,25.27
2019-01-25T08:27:56.038Z,24.80
2019-01-25T08:30:26.820Z,23.07
2019-01-25T08:32:57.392Z,23.73
2019-01-25T08:35:28.315Z,21.37
2019-01-25T08:37:58.695Z,27.50
2019-01-25T08:40:30.488Z,30.87
2019-01-25T08:43:00.866Z,25.10
2019-01-25T08:45:31.408Z,24.12
2019-01-25T08:48:02.056Z,22.97
2019-01-25T08:50:32.505Z,23.30
2019-01-25T08:53:03.206Z,23.50
2019-01-25T08:55:34.392Z,24.60
2019-01-25T08:58:05.078Z,23.63
2019-01-25T09:00:35.911Z,23.83
2019-01-25T09:03:07.469Z,25.13
2019-01-25T09:05:38.367Z,25.23
2019-01-25T09:08:09.594Z,27.57
2019-01-25T09:10:39.912Z,25.47
2019-01-25T09:13:10.210Z,25.90
2019-01-25T09:15:40.450Z,29.17
2019-01-25T09:18:11.123Z,26.63
2019-01-25T09:20:41.342Z,25.05
2019-01-25T09:23:11.625Z,23.93
2019-01-25T09:25:42.247Z,24.60
2019-01-25T09:28:12.783Z,25.53
2019-01-25T09:30:43.110Z,26.10
2019-01-25T09:33:13.569Z,32.07
2019-01-25T09:35:43.799Z,28.73
2019-01-25T09:38:14.128Z,27.60
2019-01-25T09:40:44.954Z,27.30
2019-01-25T09:43:15.249Z,28.20
2019-01-25T09:45:45.491Z,28.50
2019-01-25T09:48:15.799Z,26.37
2019-01-25T09:50:52.698Z,32.30
2019-01-25T09:53:20.986Z,32.00
2019-01-25T09:55:51.400Z,34.10
2019-01-25T09:58:21.579Z,29.10
2019-01-25T10:00:57.032Z,30.27
2019-01-25T10:03:27.627Z,27.93
2019-01-25T10:05:58.005Z,28.87
2019-01-25T10:08:28.625Z,28.53
2019-01-25T10:10:59.054Z,28.93
2019-01-25T10:13:29.287Z,29.70
2019-01-25T10:15:59.821Z,27.60
2019-01-25T10:18:30.554Z,28.80
2019-01-25T10:21:01.006Z,26.67
2019-01-25T10:23:31.188Z,27.27
2019-01-25T10:26:01.445Z,26.10
2019-01-25T10:28:31.936Z,27.67
2019-01-25T10:31:02.518Z,26.43
2019-01-25T10:33:33.977Z,26.03
2019-01-25T10:36:04.611Z,24.67
2019-01-25T10:38:35.042Z,27.37
2019-01-25T10:41:05.770Z,23.67
2019-01-25T10:43:36.369Z,22.40
2019-01-25T10:46:06.756Z,23.77
2019-01-25T10:48:37.228Z,30.07
2019-01-25T10:51:07.390Z,27.77
2019-01-25T10:53:37.807Z,23.67
2019-01-25T10:56:08.380Z,28.50
2019-01-25T10:58:38.641Z,25.23
2019-01-25T11:01:08.840Z,23.50
2019-01-25T11:03:39.181Z,23.13
2019-01-25T11:06:09.295Z,23.73
2019-01-25T11:08:39.435Z,24.07
2019-01-25T11:11:09.779Z,22.73
2019-01-25T11:13:40.086Z,23.60
2019-01-25T11:16:11.975Z,21.73
2019-01-25T11:18:42.338Z,23.97
2019-01-25T11:21:12.713Z,23.63
2019-01-25T11:23:43.454Z,23.85
2019-01-25T11:26:13.884Z,22.97
2019-01-25T11:28:44.053Z,22.33
2019-01-25T11:31:14.329Z,25.97
2019-01-25T11:33:44.692Z,26.27
2019-01-25T11:36:15.151Z,23.40
2019-01-25T11:38:45.900Z,23.00
2019-01-25T11:41:16.712Z,23.32
2019-01-25T11:43:47.061Z,21.67
2019-01-25T11:46:17.500Z,22.03
2019-01-25T11:48:47.808Z,23.90
2019-01-25T11:51:19.909Z,22.00
2019-01-25T11:53:51.000Z,21.87
2019-01-25T11:56:26.145Z,21.97
2019-01-25T11:58:56.970Z,22.00
2019-01-25T12:01:27.289Z,22.60
2019-01-25T12:03:57.606Z,21.03
2019-01-25T12:06:28.035Z,22.00
2019-01-25T12:08:58.919Z,22.70
2019-01-25T12:11:29.166Z,24.07
2019-01-25T12:13:59.522Z,23.03
2019-01-25T12:16:29.874Z,23.27
2019-01-25T12:19:01.304Z,24.37
2019-01-25T12:21:31.777Z,24.87
2019-01-25T12:24:02.812Z,23.00
2019-01-25T12:26:34.193Z,23.55
2019-01-25T12:29:04.977Z,24.73
2019-01-25T12:31:35.406Z,23.63
2019-01-25T12:34:06.108Z,24.30
2019-01-25T12:36:36.660Z,24.27
2019-01-25T12:39:10.889Z,21.83
2019-01-25T12:41:41.414Z,23.87
2019-01-25T12:44:12.108Z,23.00
2019-01-25T12:46:42.751Z,22.50
2019-01-25T12:49:14.395Z,22.20
2019-01-25T12:51:55.567Z,22.10
2019-01-25T12:54:26.120Z,22.10
2019-01-25T12:56:56.726Z,22.30
2019-01-25T12:59:27.430Z,21.10
2019-01-25T13:01:59.314Z,21.37
2019-01-25T13:04:29.640Z,20.20
2019-01-25T13:07:00.532Z,18.40
2019-01-25T13:09:31.074Z,19.30
2019-01-25T13:12:01.872Z,17.07
2019-01-25T13:14:32.985Z,18.60
2019-01-25T13:17:03.701Z,17.80
2019-01-25T13:19:34.807Z,16.70
2019-01-25T13:22:05.804Z,17.60
2019-01-25T13:24:36.435Z,16.83
2019-01-25T13:27:07.247Z,18.27
2019-01-25T13:29:37.657Z,16.50
2019-01-25T13:32:08.391Z,17.73
2019-01-25T13:34:40.116Z,17.42
2019-01-25T13:37:13.472Z,17.23
2019-01-25T13:39:44.141Z,15.67
2019-01-25T13:42:14.931Z,16.87
2019-01-25T13:44:45.494Z,15.83
2019-01-25T13:47:16.427Z,16.90
2019-01-25T13:49:46.799Z,17.83
2019-01-25T13:52:17.426Z,16.17
2019-01-25T13:54:48.170Z,16.00
2019-01-25T13:57:19.150Z,14.37
2019-01-25T13:59:49.884Z,15.23
2019-01-25T14:02:20.682Z,14.75
2019-01-25T14:04:51.139Z,14.77
2019-01-25T14:07:21.941Z,15.03
2019-01-25T14:09:52.884Z,15.80
2019-01-25T14:12:23.623Z,13.80
2019-01-25T14:14:54.483Z,13.20
2019-01-25T14:17:25.071Z,13.40
2019-01-25T14:19:55.996Z,12.40
2019-01-25T14:22:26.371Z,14.33
2019-01-25T14:24:58.507Z,12.80
2019-01-25T14:27:28.906Z,10.65
2019-01-25T14:29:59.552Z,12.07
2019-01-25T14:32:30.343Z,12.70
2019-01-25T14:35:01.341Z,11.27
2019-01-25T14:37:32.356Z,13.25
2019-01-25T14:40:03.161Z,11.40
2019-01-25T14:42:33.595Z,11.47
2019-01-25T14:45:04.119Z,12.73
2019-01-25T14:47:34.566Z,13.67
2019-01-25T14:50:06.978Z,12.27
2019-01-25T14:52:37.622Z,12.53
2019-01-25T14:55:08.547Z,12.03
2019-01-25T14:57:38.867Z,11.07
2019-01-25T15:00:10.032Z,11.37
2019-01-25T15:02:40.917Z,11.07
2019-01-25T15:05:14.866Z,11.03
2019-01-25T15:07:45.438Z,12.57
2019-01-25T15:10:20.419Z,11.12
2019-01-25T15:12:52.361Z,11.77
2019-01-25T15:15:23.407Z,11.83
2019-01-25T15:17:54.225Z,11.90
2019-01-25T15:20:27.112Z,10.70
2019-01-25T15:22:57.958Z,12.90
2019-01-25T15:25:29.126Z,11.23
2019-01-25T15:27:59.732Z,12.30
2019-01-25T15:30:32.662Z,11.73
2019-01-25T15:33:03.287Z,12.93
2019-01-25T15:35:34.274Z,11.23
2019-01-25T15:38:04.611Z,12.30
2019-01-25T15:40:35.805Z,11.03
2019-01-25T15:43:06.414Z,11.60
2019-01-25T15:45:36.817Z,13.07
2019-01-25T15:48:07.573Z,11.00
2019-01-25T15:50:38.079Z,13.30
2019-01-25T15:53:08.452Z,12.93
2019-01-25T15:55:38.943Z,12.10
2019-01-25T15:58:09.376Z,12.93
2019-01-25T16:00:39.905Z,13.23
2019-01-25T16:03:10.832Z,13.50
2019-01-25T16:05:41.538Z,13.35
2019-01-25T16:08:12.211Z,13.30
2019-01-25T16:10:42.818Z,13.23
2019-01-25T16:13:13.467Z,13.93
2019-01-25T16:15:44.019Z,12.63
2019-01-25T16:18:14.627Z,14.25
2019-01-25T16:20:45.422Z,15.40
2019-01-25T16:23:15.775Z,112.70
2019-01-25T16:25:46.444Z,58.00
2019-01-25T16:28:17.875Z,36.93
2019-01-25T16:30:48.258Z,40.90
2019-01-25T16:33:18.662Z,13.90
2019-01-25T16:35:48.865Z,13.43
2019-01-25T16:38:19.615Z,18.73
2019-01-25T16:40:50.023Z,14.67
2019-01-25T16:43:23.070Z,12.53
2019-01-25T16:45:53.342Z,11.90
2019-01-25T16:48:23.791Z,16.83
2019-01-25T16:50:54.510Z,11.43
2019-01-25T16:53:24.953Z,11.23
2019-01-25T16:55:55.126Z,11.63
2019-01-25T16:58:25.453Z,11.17
2019-01-25T17:00:55.756Z,10.40
2019-01-25T17:03:26.472Z,10.70
2019-01-25T17:05:57.062Z,10.77
2019-01-25T17:08:27.228Z,11.70
2019-01-25T17:10:57.468Z,12.23
2019-01-25T17:13:27.753Z,11.30
2019-01-25T17:15:58.243Z,10.50
2019-01-25T17:18:28.800Z,9.97
2019-01-25T17:20:59.181Z,9.73
2019-01-25T17:23:30.078Z,9.70
2019-01-25T17:26:00.451Z,10.13
2019-01-25T17:28:30.675Z,10.80
2019-01-25T17:31:01.401Z,9.80
2019-01-25T17:33:32.927Z,11.10
2019-01-25T17:36:03.345Z,10.60
2019-01-25T17:38:34.224Z,9.60
2019-01-25T17:41:04.871Z,9.73
2019-01-25T17:43:35.340Z,10.23
2019-01-25T17:46:05.797Z,10.30
2019-01-25T17:48:36.232Z,9.77
2019-01-25T17:51:06.550Z,9.60
2019-01-25T17:53:37.097Z,9.10
2019-01-25T17:56:07.721Z,9.60
2019-01-25T17:58:39.418Z,8.33
2019-01-25T18:01:10.242Z,9.50
2019-01-25T18:03:40.694Z,8.70
2019-01-25T18:06:11.345Z,8.53
2019-01-25T18:08:41.672Z,9.47
2019-01-25T18:11:12.018Z,8.67
2019-01-25T18:13:42.620Z,9.17
2019-01-25T18:16:14.328Z,11.30
2019-01-25T18:18:46.497Z,8.80
2019-01-25T18:21:17.185Z,10.00
2019-01-25T18:23:47.578Z,9.30
2019-01-25T18:26:21.433Z,10.03
2019-01-25T18:29:01.196Z,14.10
2019-01-25T18:31:32.583Z,8.80
2019-01-25T18:34:02.898Z,8.20
2019-01-25T18:36:33.223Z,10.45
2019-01-25T18:39:05.875Z,9.50
2019-01-25T18:41:36.619Z,9.70
2019-01-25T18:44:07.763Z,8.97
2019-01-25T18:46:38.200Z,9.00
2019-01-25T18:49:08.868Z,8.23
2019-01-25T18:51:39.364Z,8.87
2019-01-25T18:54:09.759Z,8.37
2019-01-25T18:56:40.496Z,8.07
2019-01-25T18:59:10.997Z,8.43
2019-01-25T19:01:41.316Z,8.37
2019-01-25T19:04:12.025Z,7.87
2019-01-25T19:06:42.460Z,7.90
2019-01-25T19:09:13.727Z,8.65
2019-01-25T19:11:43.971Z,8.47
2019-01-25T19:14:14.427Z,9.00
2019-01-25T19:16:45.062Z,7.53
2019-01-25T19:19:15.519Z,6.70
2019-01-25T19:21:46.035Z,8.20
2019-01-25T19:24:16.742Z,8.40
2019-01-25T19:26:47.236Z,6.80
2019-01-25T19:29:17.747Z,7.33
2019-01-25T19:31:48.235Z,7.23
2019-01-25T19:34:18.859Z,7.37
2019-01-25T19:36:49.605Z,7.43
2019-01-25T19:39:19.962Z,6.70
2019-01-25T19:41:50.252Z,7.20
2019-01-25T19:44:20.822Z,7.27
2019-01-25T19:46:51.309Z,8.00
2019-01-25T19:49:21.692Z,8.43
2019-01-25T19:51:52.195Z,7.73
2019-01-25T19:54:22.814Z,7.30
2019-01-25T19:56:53.330Z,5.80
2019-01-25T19:59:25.234Z,6.97
2019-01-25T20:01:55.670Z,6.63
2019-01-25T20:04:26.164Z,5.57
2019-01-25T20:06:57.195Z,5.27
2019-01-25T20:09:28.763Z,5.43
2019-01-25T20:11:59.302Z,5.43
2019-01-25T20:14:30.063Z,5.30
2019-01-25T20:17:00.695Z,5.40
2019-01-25T20:19:34.515Z,4.87
2019-01-25T20:22:05.148Z,4.43
2019-01-25T20:24:35.699Z,4.20
2019-01-25T20:27:06.419Z,3.83
2019-01-25T20:29:36.690Z,4.50
2019-01-25T20:32:07.316Z,4.93
2019-01-25T20:34:38.827Z,5.72
2019-01-25T20:37:09.221Z,5.53
2019-01-25T20:39:40.918Z,4.60
2019-01-25T20:42:11.425Z,4.93
2019-01-25T20:44:42.350Z,4.43
2019-01-25T20:47:12.841Z,5.57
2019-01-25T20:49:43.445Z,4.83
2019-01-25T20:52:14.157Z,4.43
2019-01-25T20:54:44.511Z,4.70
2019-01-25T20:57:15.113Z,5.10
2019-01-25T20:59:45.638Z,5.77
2019-01-25T21:02:16.102Z,5.23
2019-01-25T21:04:46.657Z,5.50
2019-01-25T21:07:17.257Z,5.17
2019-01-25T21:09:49.084Z,6.23
2019-01-25T21:12:19.678Z,6.40
2019-01-25T21:14:49.956Z,7.63
2019-01-25T21:17:20.587Z,6.70
2019-01-25T21:19:51.377Z,6.90
2019-01-25T21:22:22.133Z,7.10
2019-01-25T21:24:52.791Z,6.20
2019-01-25T21:27:23.606Z,5.47
2019-01-25T21:29:54.092Z,5.33
2019-01-25T21:32:25.677Z,5.40
2019-01-25T21:34:56.183Z,5.95
2019-01-25T21:37:29.688Z,5.90
2019-01-25T21:40:08.169Z,6.27
2019-01-25T21:42:33.063Z,6.10
2019-01-25T21:45:04.812Z,6.47
2019-01-25T21:47:35.328Z,6.00
2019-01-25T21:50:08.179Z,5.23
2019-01-25T21:52:38.559Z,4.87
2019-01-25T21:55:10.591Z,5.40
2019-01-25T21:57:41.262Z,4.73
2019-01-25T22:00:17.898Z,5.00
2019-01-25T22:02:48.608Z,5.40
2019-01-25T22:05:22.024Z,5.53
2019-01-25T22:07:52.431Z,4.33
2019-01-25T22:10:34.409Z,5.30
2019-01-25T22:13:05.196Z,4.93
2019-01-25T22:15:35.604Z,4.53
2019-01-25T22:18:06.451Z,4.53
2019-01-25T22:20:36.770Z,4.73
2019-01-25T22:23:07.224Z,3.90
2019-01-25T22:25:37.497Z,4.08
2019-01-25T22:28:08.023Z,3.80
2019-01-25T22:30:38.887Z,4.57
2019-01-25T22:33:09.515Z,4.43
2019-01-25T22:35:39.995Z,5.20
2019-01-25T22:38:10.504Z,4.13
2019-01-25T22:40:40.961Z,4.60
2019-01-25T22:43:11.644Z,4.70
2019-01-25T22:45:42.161Z,4.47
2019-01-25T22:48:12.860Z,4.60
2019-01-25T22:50:43.305Z,3.90
2019-01-25T22:53:13.539Z,4.40
2019-01-25T22:55:43.670Z,4.73
2019-01-25T22:58:14.189Z,3.93
2019-01-25T23:01:00.724Z,4.62
2019-01-25T23:03:50.798Z,4.60
2019-01-25T23:06:33.089Z,5.17
2019-01-25T23:09:17.863Z,4.23
2019-01-25T23:11:48.164Z,7.87
2019-01-25T23:14:18.447Z,9.60
2019-01-25T23:16:49.695Z,4.50
2019-01-25T23:19:20.548Z,4.05
2019-01-25T23:21:53.489Z,4.50
2019-01-25T23:24:23.946Z,5.33
2019-01-25T23:26:55.060Z,4.70
2019-01-25T23:29:25.426Z,5.47
2019-01-25T23:31:55.753Z,4.40
2019-01-25T23:34:26.014Z,5.13
2019-01-25T23:36:56.183Z,5.30
2019-01-25T23:39:26.459Z,4.80
2019-01-25T23:41:56.633Z,5.50
2019-01-25T23:44:27.351Z,4.77
2019-01-25T23:46:57.612Z,5.85
2019-01-25T23:49:28.049Z,4.03
2019-01-25T23:51:58.309Z,4.37
2019-01-25T23:54:28.623Z,4.27
2019-01-25T23:56:59.043Z,4.40
2019-01-25T23:59:29.670Z,5.20
